Amberson, PA (17210)

7:15 PM EDT on May 30, 2015 (GMT -0400)
Upper Mifflin Township | | Change Station
CLOSE
Current Station
Personal Weather Station
Location: Newville, PA
Elevation: 659 ft
Nearby Weather Stations

Elev 659 ft 40.21 °N, 77.49 °W | Updated 17 seconds ago

Mostly Cloudy
Mostly Cloudy
75.9 °F
Feels Like 75 °F
N
1.6
Wind Variable Wind from SW
Gusts 6.0 mph

Today
High -- | Low -- °F
--% Chance of Precip.
Yesterday
High -- | Low -- °F
Precip. -- in
5:44 AM 8:32 PM
Waxing Gibbous, 92% visible
Pressure 30.08 in
Visibility 10.0 miles
Clouds Few 10000 ft
Heat Index 75 °F
Dew Point 76 °F
Humidity 99%
Rainfall 0.00 in
Snow Depth Not available.
UV 0.0 out of 12
Pollen 8.50 out of 12
Air Quality Not available.
Flu Activity Sporadic
METAR KHGR 302253Z 11005KT 10SM FEW100 23/21 A3006 RMK AO2 RAE33 SLP184 P0001 T02280206

More Conditions Fewer Conditions

Pressure 30.08 in
Visibility 10.0 miles
Clouds Few 10000 ft
Heat Index 75 °F
Dew Point 76 °F
Humidity 99%
Rainfall 0.00 in
Snow Depth Not available.
UV 0.0 out of 12
Pollen 8.50 out of 12
Air Quality Not available.
Flu Activity Sporadic
METAR KHGR 302253Z 11005KT 10SM FEW100 23/21 A3006 RMK AO2 RAE33 SLP184 P0001 T02280206

More Conditions Fewer Conditions

Nowcast | as of 6:24 PM EDT on May 30, 2015

Widely scattered showers and isolated thunderstorms will be across the lower Susquehanna valley through sunset. Most of the activity will be east and south of a Pottsville...Newport...Chambersburg line. Some storms will contain brief torrential rain. The showers and storms are moving northeast at 15 mph.

×

10-Day Weather Forecast

Almanac

Astronomy

May. 30, 2015 Rise Set
Actual Time
Civil Twilight
Nautical Twilight
Astronomical Twilight
Moon
Length of Visible Light
Length of Day
Tomorrow will be .
, % of the Moon is Illuminated

Today's Extremes

State Highs State Lows

Community

WunderPhotos

Upload Photos

1,825,557 photos uploaded!

WunderBlogs® & News

Nearby

Air Quality

  Air Quality AQ Index Pollutant
Not available.

Snow Depth

Station Depth Elevation

Earthquake Activity

City Distance Mag. Time & Date
Minimum magnitude displayed is 2.5.

Coastal Water Temperatures

Place Temperature

Stations

Nearby Weather Stations

Station Location Temp. Windchill Dew Point Humidity Wind Precip. Elev Updated Type